Main page
METAR-TAF:

METAR-TAF

Airports :

Ämari Air Base

Ämari, Estonia

latitude: 59-15-44N, longitude: 24-13-07E, elevation: 20 m

Current weather observation

The report was made 15 hours and 2 minutes ago, at 13:50 UTC
Wind 10 kt from the North, varying between North/Northwest and Northeast
Temperature 18°C
Humidity 37%
Pressure 1025 hPa
Visibility 10 km or more
no clouds below 1500 m and no cumulonimbus

METAR: EEEI 251350Z 36010KT 330V040 CAVOK 18/03 Q1025 NOSIG

Time: 07:52 (04:52 UTC)

Forecast

The report was made 5 hours and 22 minutes ago, at 23:30 UTC
Forecast valid from 26 at 00 UTC to 26 at 24 UTC
Wind 8 kt from the West
Visibility 10 km or more
no clouds below 1500 m and no cumulonimbus
Probability 40% :
Temporary
from 26 at 00 UTC to 26 at 04 UTC
Visibility: 2000 m
Scattered clouds at a height of 300 ft
mist, patches of fog

TAF: EEEI 252330Z 2600/2624 27008KT CAVOK PROB40 TEMPO 2600/2604 2000 BR BCFG SCT003

Weather observations and forecasts of more than 4000 airports (METAR and TAF reports).

The available stations are represented by yellow and red dots on the map.

Hover mouse over dot to see the name of the station.

Then click to see weather observations and forecasts.

To change the map : click on the green buttons with a black cross to zoom in, on the green button with a dash to zoom out, or on the green arrows for adjacent maps.


METAR-TAF: